sensor_id;sensor_type;location;lat;lon;timestamp;temperature;humidity
20841;DHT22;10581;48.524;9.040;2022-08-14T00:02:00;16.00;99.90
20841;DHT22;10581;48.524;9.040;2022-08-14T00:04:26;16.00;99.90
20841;DHT22;10581;48.524;9.040;2022-08-14T00:06:52;16.00;99.90
20841;DHT22;10581;48.524;9.040;2022-08-14T00:09:18;16.10;99.90
20841;DHT22;10581;48.524;9.040;2022-08-14T00:11:43;16.10;99.90
20841;DHT22;10581;48.524;9.040;2022-08-14T00:14:09;16.10;99.90
20841;DHT22;10581;48.524;9.040;2022-08-14T00:16:35;16.10;99.90
20841;DHT22;10581;48.524;9.040;2022-08-14T00:19:02;16.10;99.90
20841;DHT22;10581;48.524;9.040;2022-08-14T00:21:28;16.00;99.90
20841;DHT22;10581;48.524;9.040;2022-08-14T00:23:53;15.90;99.90
20841;DHT22;10581;48.524;9.040;2022-08-14T00:26:21;15.90;99.90
20841;DHT22;10581;48.524;9.040;2022-08-14T00:28:48;15.80;99.90
20841;DHT22;10581;48.524;9.040;2022-08-14T00:31:13;15.70;99.90
20841;DHT22;10581;48.524;9.040;2022-08-14T00:33:39;15.60;99.90
20841;DHT22;10581;48.524;9.040;2022-08-14T00:36:05;15.40;99.90
20841;DHT22;10581;48.524;9.040;2022-08-14T00:38:32;15.30;99.90
20841;DHT22;10581;48.524;9.040;2022-08-14T00:40:58;15.20;99.90
20841;DHT22;10581;48.524;9.040;2022-08-14T00:43:23;15.20;99.90
20841;DHT22;10581;48.524;9.040;2022-08-14T00:45:49;15.00;99.90
20841;DHT22;10581;48.524;9.040;2022-08-14T00:48:15;14.90;99.90
20841;DHT22;10581;48.524;9.040;2022-08-14T00:50:43;14.80;99.90
20841;DHT22;10581;48.524;9.040;2022-08-14T00:53:09;14.70;99.90
20841;DHT22;10581;48.524;9.040;2022-08-14T00:55:36;14.70;99.90
20841;DHT22;10581;48.524;9.040;2022-08-14T00:58:06;14.80;99.90
20841;DHT22;10581;48.524;9.040;2022-08-14T01:00:50;14.70;99.90
20841;DHT22;10581;48.524;9.040;2022-08-14T01:03:19;14.60;99.90
20841;DHT22;10581;48.524;9.040;2022-08-14T01:05:45;14.60;99.90
20841;DHT22;10581;48.524;9.040;2022-08-14T01:08:28;14.70;99.90
20841;DHT22;10581;48.524;9.040;2022-08-14T01:10:55;14.50;99.90
20841;DHT22;10581;48.524;9.040;2022-08-14T01:13:24;14.20;99.90
20841;DHT22;10581;48.524;9.040;2022-08-14T01:15:52;14.10;99.90
20841;DHT22;10581;48.524;9.040;2022-08-14T01:18:19;14.10;99.90
20841;DHT22;10581;48.524;9.040;2022-08-14T01:21:06;13.90;99.90
20841;DHT22;10581;48.524;9.040;2022-08-14T01:26:05;13.60;99.90
20841;DHT22;10581;48.524;9.040;2022-08-14T01:28:32;13.70;99.90
20841;DHT22;10581;48.524;9.040;2022-08-14T01:31:04;13.60;99.90
20841;DHT22;10581;48.524;9.040;2022-08-14T01:33:31;13.60;99.90
20841;DHT22;10581;48.524;9.040;2022-08-14T01:36:00;13.50;99.90
20841;DHT22;10581;48.524;9.040;2022-08-14T01:38:29;13.50;99.90
20841;DHT22;10581;48.524;9.040;2022-08-14T01:41:14;13.50;99.90
20841;DHT22;10581;48.524;9.040;2022-08-14T01:43:55;13.50;99.90
20841;DHT22;10581;48.524;9.040;2022-08-14T01:46:30;13.50;99.90
20841;DHT22;10581;48.524;9.040;2022-08-14T01:48:57;13.50;99.90
20841;DHT22;10581;48.524;9.040;2022-08-14T01:51:25;13.40;99.90
20841;DHT22;10581;48.524;9.040;2022-08-14T01:53:59;13.40;99.90
20841;DHT22;10581;48.524;9.040;2022-08-14T01:56:31;13.30;99.90
20841;DHT22;10581;48.524;9.040;2022-08-14T01:59:01;13.30;99.90
20841;DHT22;10581;48.524;9.040;2022-08-14T02:01:27;13.30;99.90
20841;DHT22;10581;48.524;9.040;2022-08-14T02:03:53;13.30;99.90
20841;DHT22;10581;48.524;9.040;2022-08-14T02:06:19;13.30;99.90
20841;DHT22;10581;48.524;9.040;2022-08-14T02:08:46;13.30;99.90
20841;DHT22;10581;48.524;9.040;2022-08-14T02:11:12;13.20;99.90
20841;DHT22;10581;48.524;9.040;2022-08-14T02:13:59;13.20;99.90
20841;DHT22;10581;48.524;9.040;2022-08-14T02:16:30;13.10;99.90
20841;DHT22;10581;48.524;9.040;2022-08-14T02:18:59;13.10;99.90
20841;DHT22;10581;48.524;9.040;2022-08-14T02:21:27;13.10;99.90
20841;DHT22;10581;48.524;9.040;2022-08-14T02:23:55;13.10;99.90
20841;DHT22;10581;48.524;9.040;2022-08-14T02:26:24;13.20;99.90
20841;DHT22;10581;48.524;9.040;2022-08-14T02:28:52;13.20;99.90
20841;DHT22;10581;48.524;9.040;2022-08-14T02:31:19;13.20;99.90
20841;DHT22;10581;48.524;9.040;2022-08-14T02:33:45;13.10;99.90
20841;DHT22;10581;48.524;9.040;2022-08-14T02:36:13;13.10;99.90
20841;DHT22;10581;48.524;9.040;2022-08-14T02:38:39;13.20;99.90
20841;DHT22;10581;48.524;9.040;2022-08-14T02:41:08;13.10;99.90
20841;DHT22;10581;48.524;9.040;2022-08-14T02:43:35;13.10;99.90
20841;DHT22;10581;48.524;9.040;2022-08-14T02:46:06;13.20;99.90
20841;DHT22;10581;48.524;9.040;2022-08-14T02:48:34;13.10;99.90
20841;DHT22;10581;48.524;9.040;2022-08-14T02:51:03;13.10;99.90
20841;DHT22;10581;48.524;9.040;2022-08-14T02:53:30;13.20;99.90
20841;DHT22;10581;48.524;9.040;2022-08-14T02:55:56;13.10;99.90
20841;DHT22;10581;48.524;9.040;2022-08-14T02:58:22;13.20;99.90
20841;DHT22;10581;48.524;9.040;2022-08-14T03:00:49;13.10;99.90
20841;DHT22;10581;48.524;9.040;2022-08-14T03:03:16;12.90;99.90
20841;DHT22;10581;48.524;9.040;2022-08-14T03:05:42;12.80;99.90
20841;DHT22;10581;48.524;9.040;2022-08-14T03:08:12;12.60;99.90
20841;DHT22;10581;48.524;9.040;2022-08-14T03:10:38;12.60;99.90
20841;DHT22;10581;48.524;9.040;2022-08-14T03:13:04;12.60;99.90
20841;DHT22;10581;48.524;9.040;2022-08-14T03:15:33;12.60;99.90
20841;DHT22;10581;48.524;9.040;2022-08-14T03:18:08;12.50;99.90
20841;DHT22;10581;48.524;9.040;2022-08-14T03:20:33;12.40;99.90
20841;DHT22;10581;48.524;9.040;2022-08-14T03:23:00;12.30;99.90
20841;DHT22;10581;48.524;9.040;2022-08-14T03:25:27;12.30;99.90
20841;DHT22;10581;48.524;9.040;2022-08-14T03:27:55;12.20;99.90
20841;DHT22;10581;48.524;9.040;2022-08-14T03:30:21;12.20;99.90
20841;DHT22;10581;48.524;9.040;2022-08-14T03:32:47;12.20;99.90
20841;DHT22;10581;48.524;9.040;2022-08-14T03:35:13;12.00;99.90
20841;DHT22;10581;48.524;9.040;2022-08-14T03:37:39;11.90;99.90
20841;DHT22;10581;48.524;9.040;2022-08-14T03:40:06;11.90;99.90
20841;DHT22;10581;48.524;9.040;2022-08-14T03:42:32;11.90;99.90
20841;DHT22;10581;48.524;9.040;2022-08-14T03:44:59;12.00;99.90
20841;DHT22;10581;48.524;9.040;2022-08-14T03:47:25;12.00;99.90
20841;DHT22;10581;48.524;9.040;2022-08-14T03:49:50;12.00;99.90
20841;DHT22;10581;48.524;9.040;2022-08-14T03:52:17;12.00;99.90
20841;DHT22;10581;48.524;9.040;2022-08-14T03:54:43;11.90;99.90
20841;DHT22;10581;48.524;9.040;2022-08-14T03:57:10;11.90;99.90
20841;DHT22;10581;48.524;9.040;2022-08-14T03:59:36;11.90;99.90
20841;DHT22;10581;48.524;9.040;2022-08-14T04:02:02;11.80;99.90
20841;DHT22;10581;48.524;9.040;2022-08-14T04:04:30;11.90;99.90
20841;DHT22;10581;48.524;9.040;2022-08-14T04:06:55;11.80;99.90
20841;DHT22;10581;48.524;9.040;2022-08-14T04:09:23;11.80;99.90
20841;DHT22;10581;48.524;9.040;2022-08-14T04:11:49;11.70;99.90
20841;DHT22;10581;48.524;9.040;2022-08-14T04:14:15;11.70;99.90
20841;DHT22;10581;48.524;9.040;2022-08-14T04:16:40;11.70;99.90
20841;DHT22;10581;48.524;9.040;2022-08-14T04:19:10;11.80;99.90
20841;DHT22;10581;48.524;9.040;2022-08-14T04:21:35;11.70;99.90
20841;DHT22;10581;48.524;9.040;2022-08-14T04:24:01;11.70;99.90
20841;DHT22;10581;48.524;9.040;2022-08-14T04:26:29;11.70;99.90
20841;DHT22;10581;48.524;9.040;2022-08-14T04:28:55;11.80;99.90
20841;DHT22;10581;48.524;9.040;2022-08-14T04:31:22;11.80;99.90
20841;DHT22;10581;48.524;9.040;2022-08-14T04:33:48;11.70;99.90
20841;DHT22;10581;48.524;9.040;2022-08-14T04:36:14;11.60;99.90
20841;DHT22;10581;48.524;9.040;2022-08-14T04:38:40;11.60;99.90
20841;DHT22;10581;48.524;9.040;2022-08-14T04:41:24;11.50;99.90
20841;DHT22;10581;48.524;9.040;2022-08-14T04:44:08;11.50;99.90
20841;DHT22;10581;48.524;9.040;2022-08-14T04:46:34;11.60;99.90
20841;DHT22;10581;48.524;9.040;2022-08-14T04:49:02;11.60;99.90
20841;DHT22;10581;48.524;9.040;2022-08-14T04:51:28;11.60;99.90
20841;DHT22;10581;48.524;9.040;2022-08-14T04:53:54;11.70;99.90
20841;DHT22;10581;48.524;9.040;2022-08-14T04:56:25;11.70;99.90
20841;DHT22;10581;48.524;9.040;2022-08-14T04:58:53;11.80;99.90
20841;DHT22;10581;48.524;9.040;2022-08-14T05:01:25;11.90;99.90
20841;DHT22;10581;48.524;9.040;2022-08-14T05:03:51;12.00;99.90
20841;DHT22;10581;48.524;9.040;2022-08-14T05:06:17;12.10;99.90
20841;DHT22;10581;48.524;9.040;2022-08-14T05:08:43;12.10;99.90
20841;DHT22;10581;48.524;9.040;2022-08-14T05:11:09;12.20;99.90
20841;DHT22;10581;48.524;9.040;2022-08-14T05:13:35;12.30;99.90
20841;DHT22;10581;48.524;9.040;2022-08-14T05:16:03;12.50;99.90
20841;DHT22;10581;48.524;9.040;2022-08-14T05:18:38;12.50;99.90
20841;DHT22;10581;48.524;9.040;2022-08-14T05:21:07;12.70;99.90
20841;DHT22;10581;48.524;9.040;2022-08-14T05:23:36;12.70;99.90
20841;DHT22;10581;48.524;9.040;2022-08-14T05:26:02;12.60;99.90
20841;DHT22;10581;48.524;9.040;2022-08-14T05:28:34;12.70;99.90
20841;DHT22;10581;48.524;9.040;2022-08-14T05:31:03;12.70;99.90
20841;DHT22;10581;48.524;9.040;2022-08-14T05:33:34;12.60;99.90
20841;DHT22;10581;48.524;9.040;2022-08-14T05:36:03;12.60;99.90
20841;DHT22;10581;48.524;9.040;2022-08-14T05:38:37;12.60;99.90
20841;DHT22;10581;48.524;9.040;2022-08-14T05:41:06;12.60;99.90
20841;DHT22;10581;48.524;9.040;2022-08-14T05:43:32;12.70;99.90
20841;DHT22;10581;48.524;9.040;2022-08-14T05:45:59;12.90;99.90
20841;DHT22;10581;48.524;9.040;2022-08-14T05:48:25;13.00;99.90
20841;DHT22;10581;48.524;9.040;2022-08-14T05:50:52;13.10;99.90
20841;DHT22;10581;48.524;9.040;2022-08-14T05:53:20;13.30;99.90
20841;DHT22;10581;48.524;9.040;2022-08-14T05:55:47;13.40;99.90
20841;DHT22;10581;48.524;9.040;2022-08-14T05:58:13;13.50;99.90
20841;DHT22;10581;48.524;9.040;2022-08-14T06:00:41;13.60;99.90
20841;DHT22;10581;48.524;9.040;2022-08-14T06:03:09;13.70;99.90
20841;DHT22;10581;48.524;9.040;2022-08-14T06:05:36;13.80;99.90
20841;DHT22;10581;48.524;9.040;2022-08-14T06:08:02;13.90;99.90
20841;DHT22;10581;48.524;9.040;2022-08-14T06:10:29;14.00;99.90
20841;DHT22;10581;48.524;9.040;2022-08-14T06:12:57;14.10;99.90
20841;DHT22;10581;48.524;9.040;2022-08-14T06:15:24;14.20;99.90
20841;DHT22;10581;48.524;9.040;2022-08-14T06:17:52;14.20;99.90
20841;DHT22;10581;48.524;9.040;2022-08-14T06:20:19;14.30;99.90
20841;DHT22;10581;48.524;9.040;2022-08-14T06:22:45;14.40;99.90
20841;DHT22;10581;48.524;9.040;2022-08-14T06:25:13;14.50;99.90
20841;DHT22;10581;48.524;9.040;2022-08-14T06:27:43;14.60;99.90
20841;DHT22;10581;48.524;9.040;2022-08-14T06:30:16;14.60;99.90
20841;DHT22;10581;48.524;9.040;2022-08-14T06:32:43;14.80;99.90
20841;DHT22;10581;48.524;9.040;2022-08-14T06:35:10;14.80;99.90
20841;DHT22;10581;48.524;9.040;2022-08-14T06:37:52;14.90;99.90
20841;DHT22;10581;48.524;9.040;2022-08-14T06:40:23;15.00;99.90
20841;DHT22;10581;48.524;9.040;2022-08-14T06:42:49;15.20;99.90
20841;DHT22;10581;48.524;9.040;2022-08-14T06:45:15;15.40;99.90
20841;DHT22;10581;48.524;9.040;2022-08-14T06:47:43;15.50;99.90
20841;DHT22;10581;48.524;9.040;2022-08-14T06:50:11;15.60;99.90
20841;DHT22;10581;48.524;9.040;2022-08-14T06:52:38;15.70;99.90
20841;DHT22;10581;48.524;9.040;2022-08-14T06:55:08;15.80;99.90
20841;DHT22;10581;48.524;9.040;2022-08-14T07:00:13;16.10;99.90
20841;DHT22;10581;48.524;9.040;2022-08-14T07:02:39;16.30;99.90
20841;DHT22;10581;48.524;9.040;2022-08-14T07:05:23;16.40;99.90
20841;DHT22;10581;48.524;9.040;2022-08-14T07:08:18;16.60;99.90
20841;DHT22;10581;48.524;9.040;2022-08-14T07:10:50;16.90;99.90
20841;DHT22;10581;48.524;9.040;2022-08-14T07:13:17;17.00;99.90
20841;DHT22;10581;48.524;9.040;2022-08-14T07:15:44;17.20;99.90
20841;DHT22;10581;48.524;9.040;2022-08-14T07:18:12;17.40;99.90
20841;DHT22;10581;48.524;9.040;2022-08-14T07:20:39;17.60;99.90
20841;DHT22;10581;48.524;9.040;2022-08-14T07:23:07;17.70;99.90
20841;DHT22;10581;48.524;9.040;2022-08-14T07:25:35;17.90;99.90
20841;DHT22;10581;48.524;9.040;2022-08-14T07:28:08;18.00;99.90
20841;DHT22;10581;48.524;9.040;2022-08-14T07:30:34;18.10;99.90
20841;DHT22;10581;48.524;9.040;2022-08-14T07:33:00;18.20;99.90
20841;DHT22;10581;48.524;9.040;2022-08-14T07:35:26;18.30;99.90
20841;DHT22;10581;48.524;9.040;2022-08-14T07:37:51;18.40;99.90
20841;DHT22;10581;48.524;9.040;2022-08-14T08:45:15;22.40;99.90
20841;DHT22;10581;48.524;9.040;2022-08-14T08:47:41;22.60;99.90
20841;DHT22;10581;48.524;9.040;2022-08-14T08:50:22;22.80;99.90
20841;DHT22;10581;48.524;9.040;2022-08-14T08:52:50;22.90;99.90
20841;DHT22;10581;48.524;9.040;2022-08-14T08:55:39;23.10;99.90
20841;DHT22;10581;48.524;9.040;2022-08-14T08:58:07;23.40;99.90
20841;DHT22;10581;48.524;9.040;2022-08-14T09:00:35;23.80;99.90
20841;DHT22;10581;48.524;9.040;2022-08-14T09:03:04;23.80;99.90
20841;DHT22;10581;48.524;9.040;2022-08-14T09:05:32;23.90;99.90
20841;DHT22;10581;48.524;9.040;2022-08-14T09:08:15;24.10;99.90
20841;DHT22;10581;48.524;9.040;2022-08-14T09:10:41;24.20;99.90
20841;DHT22;10581;48.524;9.040;2022-08-14T09:13:08;24.40;99.80
20841;DHT22;10581;48.524;9.040;2022-08-14T09:15:41;24.60;99.50
20841;DHT22;10581;48.524;9.040;2022-08-14T09:18:08;24.90;97.90
20841;DHT22;10581;48.524;9.040;2022-08-14T09:20:36;25.20;97.20
20841;DHT22;10581;48.524;9.040;2022-08-14T09:23:03;25.40;96.10
20841;DHT22;10581;48.524;9.040;2022-08-14T09:25:30;25.30;96.70
20841;DHT22;10581;48.524;9.040;2022-08-14T09:27:56;25.30;95.80
20841;DHT22;10581;48.524;9.040;2022-08-14T09:30:22;25.40;96.70
20841;DHT22;10581;48.524;9.040;2022-08-14T09:44:05;25.90;93.80
20841;DHT22;10581;48.524;9.040;2022-08-14T09:46:33;25.90;93.60
20841;DHT22;10581;48.524;9.040;2022-08-14T09:49:06;26.00;93.90
20841;DHT22;10581;48.524;9.040;2022-08-14T09:51:35;26.10;93.50
20841;DHT22;10581;48.524;9.040;2022-08-14T09:54:08;26.10;94.10
20841;DHT22;10581;48.524;9.040;2022-08-14T09:56:49;26.10;93.20
20841;DHT22;10581;48.524;9.040;2022-08-14T09:59:17;26.20;93.80
20841;DHT22;10581;48.524;9.040;2022-08-14T10:01:47;26.20;92.40
20841;DHT22;10581;48.524;9.040;2022-08-14T10:04:24;26.50;89.60
20841;DHT22;10581;48.524;9.040;2022-08-14T10:06:51;26.70;86.30
20841;DHT22;10581;48.524;9.040;2022-08-14T10:09:17;26.80;85.40
20841;DHT22;10581;48.524;9.040;2022-08-14T10:11:57;26.90;82.20
20841;DHT22;10581;48.524;9.040;2022-08-14T10:14:27;27.00;81.70
20841;DHT22;10581;48.524;9.040;2022-08-14T10:16:55;27.10;81.30
20841;DHT22;10581;48.524;9.040;2022-08-14T10:19:26;27.10;79.40
20841;DHT22;10581;48.524;9.040;2022-08-14T10:22:00;27.10;80.50
20841;DHT22;10581;48.524;9.040;2022-08-14T10:24:31;27.20;79.10
20841;DHT22;10581;48.524;9.040;2022-08-14T10:26:59;27.30;76.50
20841;DHT22;10581;48.524;9.040;2022-08-14T10:29:34;27.50;75.50
20841;DHT22;10581;48.524;9.040;2022-08-14T10:32:00;27.50;75.70
20841;DHT22;10581;48.524;9.040;2022-08-14T10:34:37;27.60;76.30
20841;DHT22;10581;48.524;9.040;2022-08-14T10:37:11;27.70;72.50
20841;DHT22;10581;48.524;9.040;2022-08-14T10:39:39;27.70;73.50
20841;DHT22;10581;48.524;9.040;2022-08-14T10:42:07;27.60;71.30
20841;DHT22;10581;48.524;9.040;2022-08-14T10:44:46;27.60;71.60
20841;DHT22;10581;48.524;9.040;2022-08-14T10:47:14;27.80;70.70
20841;DHT22;10581;48.524;9.040;2022-08-14T10:49:55;27.80;72.10
20841;DHT22;10581;48.524;9.040;2022-08-14T10:52:27;28.10;71.20
20841;DHT22;10581;48.524;9.040;2022-08-14T10:55:09;28.10;67.80
20841;DHT22;10581;48.524;9.040;2022-08-14T10:57:52;28.30;68.00
20841;DHT22;10581;48.524;9.040;2022-08-14T11:00:22;28.30;66.60
20841;DHT22;10581;48.524;9.040;2022-08-14T11:03:00;28.20;68.30
20841;DHT22;10581;48.524;9.040;2022-08-14T11:05:38;28.40;67.50
20841;DHT22;10581;48.524;9.040;2022-08-14T11:08:06;28.50;65.70
20841;DHT22;10581;48.524;9.040;2022-08-14T11:10:47;28.40;65.20
20841;DHT22;10581;48.524;9.040;2022-08-14T11:13:24;28.40;65.80
20841;DHT22;10581;48.524;9.040;2022-08-14T11:15:52;28.30;65.20
20841;DHT22;10581;48.524;9.040;2022-08-14T11:18:20;28.30;64.60
20841;DHT22;10581;48.524;9.040;2022-08-14T11:20:51;28.50;66.30
20841;DHT22;10581;48.524;9.040;2022-08-14T11:25:56;29.00;64.10
20841;DHT22;10581;48.524;9.040;2022-08-14T11:28:25;29.20;63.50
20841;DHT22;10581;48.524;9.040;2022-08-14T11:30:51;29.70;62.30
20841;DHT22;10581;48.524;9.040;2022-08-14T11:33:27;29.60;62.70
20841;DHT22;10581;48.524;9.040;2022-08-14T11:35:56;29.70;60.20
20841;DHT22;10581;48.524;9.040;2022-08-14T11:38:24;29.60;59.70
20841;DHT22;10581;48.524;9.040;2022-08-14T11:40:51;29.60;60.70
20841;DHT22;10581;48.524;9.040;2022-08-14T11:43:16;29.80;59.10
20841;DHT22;10581;48.524;9.040;2022-08-14T11:45:46;29.90;59.10
20841;DHT22;10581;48.524;9.040;2022-08-14T11:48:18;30.10;60.30
20841;DHT22;10581;48.524;9.040;2022-08-14T11:50:45;30.50;57.50
20841;DHT22;10581;48.524;9.040;2022-08-14T11:53:25;30.80;59.00
20841;DHT22;10581;48.524;9.040;2022-08-14T11:56:04;31.50;58.90
20841;DHT22;10581;48.524;9.040;2022-08-14T11:58:35;31.60;57.70
20841;DHT22;10581;48.524;9.040;2022-08-14T12:01:04;32.00;58.20
20841;DHT22;10581;48.524;9.040;2022-08-14T12:03:41;32.30;53.70
20841;DHT22;10581;48.524;9.040;2022-08-14T12:06:18;32.10;54.00
20841;DHT22;10581;48.524;9.040;2022-08-14T12:08:44;31.80;54.80
20841;DHT22;10581;48.524;9.040;2022-08-14T12:11:19;31.80;55.40
20841;DHT22;10581;48.524;9.040;2022-08-14T12:13:45;32.20;55.50
20841;DHT22;10581;48.524;9.040;2022-08-14T12:16:13;32.00;54.20
20841;DHT22;10581;48.524;9.040;2022-08-14T12:18:42;31.90;54.00
20841;DHT22;10581;48.524;9.040;2022-08-14T12:21:20;32.10;53.80
20841;DHT22;10581;48.524;9.040;2022-08-14T12:23:48;32.10;54.70
20841;DHT22;10581;48.524;9.040;2022-08-14T12:26:24;31.80;54.60
20841;DHT22;10581;48.524;9.040;2022-08-14T12:28:49;32.00;55.50
20841;DHT22;10581;48.524;9.040;2022-08-14T12:31:19;32.10;55.40
20841;DHT22;10581;48.524;9.040;2022-08-14T12:33:56;32.20;54.40
20841;DHT22;10581;48.524;9.040;2022-08-14T12:36:22;32.60;53.40
20841;DHT22;10581;48.524;9.040;2022-08-14T12:38:48;33.10;52.60
20841;DHT22;10581;48.524;9.040;2022-08-14T12:41:21;33.30;52.60
20841;DHT22;10581;48.524;9.040;2022-08-14T12:46:24;33.60;51.70
20841;DHT22;10581;48.524;9.040;2022-08-14T12:48:51;33.60;50.40
20841;DHT22;10581;48.524;9.040;2022-08-14T12:51:18;32.90;50.60
20841;DHT22;10581;48.524;9.040;2022-08-14T12:53:46;32.60;51.40
20841;DHT22;10581;48.524;9.040;2022-08-14T12:56:16;32.30;52.10
20841;DHT22;10581;48.524;9.040;2022-08-14T12:58:56;32.30;51.30
20841;DHT22;10581;48.524;9.040;2022-08-14T13:01:27;32.30;50.70
20841;DHT22;10581;48.524;9.040;2022-08-14T13:04:15;32.40;50.80
20841;DHT22;10581;48.524;9.040;2022-08-14T13:06:44;32.20;51.30
20841;DHT22;10581;48.524;9.040;2022-08-14T13:09:12;31.70;51.00
20841;DHT22;10581;48.524;9.040;2022-08-14T13:11:50;31.40;51.60
20841;DHT22;10581;48.524;9.040;2022-08-14T13:14:25;31.30;51.70
20841;DHT22;10581;48.524;9.040;2022-08-14T13:16:55;31.20;51.90
20841;DHT22;10581;48.524;9.040;2022-08-14T13:19:22;31.20;51.70
20841;DHT22;10581;48.524;9.040;2022-08-14T13:21:51;31.30;53.60
20841;DHT22;10581;48.524;9.040;2022-08-14T13:24:18;31.20;51.80
20841;DHT22;10581;48.524;9.040;2022-08-14T13:26:49;31.50;51.60
20841;DHT22;10581;48.524;9.040;2022-08-14T13:29:20;31.50;51.30
20841;DHT22;10581;48.524;9.040;2022-08-14T13:31:49;31.60;52.30
20841;DHT22;10581;48.524;9.040;2022-08-14T13:34:22;31.70;51.60
20841;DHT22;10581;48.524;9.040;2022-08-14T13:36:48;31.80;52.10
20841;DHT22;10581;48.524;9.040;2022-08-14T13:39:16;32.10;52.20
20841;DHT22;10581;48.524;9.040;2022-08-14T13:41:42;32.30;50.60
20841;DHT22;10581;48.524;9.040;2022-08-14T13:44:09;32.50;50.80
20841;DHT22;10581;48.524;9.040;2022-08-14T13:46:36;32.40;50.20
20841;DHT22;10581;48.524;9.040;2022-08-14T13:49:02;32.40;49.50
20841;DHT22;10581;48.524;9.040;2022-08-14T13:51:37;32.10;49.50
20841;DHT22;10581;48.524;9.040;2022-08-14T13:54:04;32.00;50.70
20841;DHT22;10581;48.524;9.040;2022-08-14T13:56:31;32.20;49.30
20841;DHT22;10581;48.524;9.040;2022-08-14T13:59:00;32.10;50.70
20841;DHT22;10581;48.524;9.040;2022-08-14T14:01:27;32.10;49.70
20841;DHT22;10581;48.524;9.040;2022-08-14T14:03:54;31.90;48.90
20841;DHT22;10581;48.524;9.040;2022-08-14T14:06:23;31.70;48.90
20841;DHT22;10581;48.524;9.040;2022-08-14T14:08:53;31.60;49.10
20841;DHT22;10581;48.524;9.040;2022-08-14T14:11:20;31.50;49.50
20841;DHT22;10581;48.524;9.040;2022-08-14T14:13:49;31.50;49.50
20841;DHT22;10581;48.524;9.040;2022-08-14T14:16:15;31.60;51.00
20841;DHT22;10581;48.524;9.040;2022-08-14T14:18:49;31.80;49.80
20841;DHT22;10581;48.524;9.040;2022-08-14T14:21:21;31.70;50.10
20841;DHT22;10581;48.524;9.040;2022-08-14T14:23:48;31.70;50.10
20841;DHT22;10581;48.524;9.040;2022-08-14T14:26:16;31.80;49.70
20841;DHT22;10581;48.524;9.040;2022-08-14T14:28:49;31.80;49.10
20841;DHT22;10581;48.524;9.040;2022-08-14T14:31:20;31.90;49.00
20841;DHT22;10581;48.524;9.040;2022-08-14T14:33:49;31.80;49.70
20841;DHT22;10581;48.524;9.040;2022-08-14T14:36:21;31.70;48.70
20841;DHT22;10581;48.524;9.040;2022-08-14T14:38:57;31.60;48.40
20841;DHT22;10581;48.524;9.040;2022-08-14T14:41:25;31.50;48.90
20841;DHT22;10581;48.524;9.040;2022-08-14T14:43:52;31.40;48.50
20841;DHT22;10581;48.524;9.040;2022-08-14T14:46:20;31.30;48.60
20841;DHT22;10581;48.524;9.040;2022-08-14T14:48:46;31.20;49.70
20841;DHT22;10581;48.524;9.040;2022-08-14T14:51:14;31.30;50.70
20841;DHT22;10581;48.524;9.040;2022-08-14T14:53:40;31.50;49.60
20841;DHT22;10581;48.524;9.040;2022-08-14T14:56:07;31.60;49.00
20841;DHT22;10581;48.524;9.040;2022-08-14T14:58:37;31.60;48.30
20841;DHT22;10581;48.524;9.040;2022-08-14T15:01:04;31.60;48.50
20841;DHT22;10581;48.524;9.040;2022-08-14T15:03:35;31.60;49.20
20841;DHT22;10581;48.524;9.040;2022-08-14T15:06:02;31.70;49.20
20841;DHT22;10581;48.524;9.040;2022-08-14T15:08:28;31.90;49.90
20841;DHT22;10581;48.524;9.040;2022-08-14T15:10:57;32.10;49.30
20841;DHT22;10581;48.524;9.040;2022-08-14T15:13:24;32.10;48.40
20841;DHT22;10581;48.524;9.040;2022-08-14T15:15:51;32.00;47.80
20841;DHT22;10581;48.524;9.040;2022-08-14T15:18:18;31.80;49.80
20841;DHT22;10581;48.524;9.040;2022-08-14T15:20:46;31.80;50.10
20841;DHT22;10581;48.524;9.040;2022-08-14T15:23:12;31.80;50.40
20841;DHT22;10581;48.524;9.040;2022-08-14T15:25:38;31.80;49.70
20841;DHT22;10581;48.524;9.040;2022-08-14T15:28:04;31.70;49.50
20841;DHT22;10581;48.524;9.040;2022-08-14T15:30:38;31.50;49.10
20841;DHT22;10581;48.524;9.040;2022-08-14T15:33:04;31.50;49.50
20841;DHT22;10581;48.524;9.040;2022-08-14T15:35:30;31.40;50.20
20841;DHT22;10581;48.524;9.040;2022-08-14T15:37:58;31.50;49.60
20841;DHT22;10581;48.524;9.040;2022-08-14T15:40:30;31.50;49.60
20841;DHT22;10581;48.524;9.040;2022-08-14T15:42:55;31.50;49.90
20841;DHT22;10581;48.524;9.040;2022-08-14T15:45:22;31.50;49.00
20841;DHT22;10581;48.524;9.040;2022-08-14T15:47:48;31.50;48.50
20841;DHT22;10581;48.524;9.040;2022-08-14T15:50:14;31.40;49.10
20841;DHT22;10581;48.524;9.040;2022-08-14T15:52:40;31.30;50.10
20841;DHT22;10581;48.524;9.040;2022-08-14T15:55:09;31.20;49.80
20841;DHT22;10581;48.524;9.040;2022-08-14T15:57:36;31.20;49.80
20841;DHT22;10581;48.524;9.040;2022-08-14T16:00:05;31.20;50.40
20841;DHT22;10581;48.524;9.040;2022-08-14T16:02:49;31.20;50.00
20841;DHT22;10581;48.524;9.040;2022-08-14T16:05:15;31.50;49.20
20841;DHT22;10581;48.524;9.040;2022-08-14T16:07:44;31.60;49.20
20841;DHT22;10581;48.524;9.040;2022-08-14T16:10:09;31.60;49.10
20841;DHT22;10581;48.524;9.040;2022-08-14T16:12:35;31.60;49.10
20841;DHT22;10581;48.524;9.040;2022-08-14T16:15:01;31.40;49.10
20841;DHT22;10581;48.524;9.040;2022-08-14T16:17:27;31.30;50.50
20841;DHT22;10581;48.524;9.040;2022-08-14T16:19:53;30.90;50.70
20841;DHT22;10581;48.524;9.040;2022-08-14T16:22:19;30.90;51.10
20841;DHT22;10581;48.524;9.040;2022-08-14T16:24:45;30.70;53.00
20841;DHT22;10581;48.524;9.040;2022-08-14T16:27:11;30.60;53.40
20841;DHT22;10581;48.524;9.040;2022-08-14T16:29:39;30.60;53.90
20841;DHT22;10581;48.524;9.040;2022-08-14T16:32:08;30.60;53.10
20841;DHT22;10581;48.524;9.040;2022-08-14T16:34:38;30.50;53.20
20841;DHT22;10581;48.524;9.040;2022-08-14T16:37:05;30.40;52.50
20841;DHT22;10581;48.524;9.040;2022-08-14T16:39:32;30.30;52.30
20841;DHT22;10581;48.524;9.040;2022-08-14T16:42:01;30.30;54.50
20841;DHT22;10581;48.524;9.040;2022-08-14T16:44:27;30.10;54.00
20841;DHT22;10581;48.524;9.040;2022-08-14T16:47:02;30.10;55.60
20841;DHT22;10581;48.524;9.040;2022-08-14T16:49:28;30.00;55.30
20841;DHT22;10581;48.524;9.040;2022-08-14T16:51:54;30.00;56.20
20841;DHT22;10581;48.524;9.040;2022-08-14T16:54:20;30.10;56.50
20841;DHT22;10581;48.524;9.040;2022-08-14T16:56:45;30.10;56.30
20841;DHT22;10581;48.524;9.040;2022-08-14T16:59:13;29.90;57.00
20841;DHT22;10581;48.524;9.040;2022-08-14T17:01:45;29.90;58.50
20841;DHT22;10581;48.524;9.040;2022-08-14T17:04:14;29.90;56.30
20841;DHT22;10581;48.524;9.040;2022-08-14T17:06:46;29.80;57.40
20841;DHT22;10581;48.524;9.040;2022-08-14T17:09:33;29.60;57.30